createdAt,value
2019-05-07T00:01:56.813Z,4.80
2019-05-07T00:04:26.736Z,5.47
2019-05-07T00:06:57.164Z,4.87
2019-05-07T00:09:26.945Z,4.30
2019-05-07T00:11:56.864Z,5.03
2019-05-07T00:14:27.056Z,4.90
2019-05-07T00:16:57.343Z,4.97
2019-05-07T00:19:27.116Z,5.50
2019-05-07T00:21:56.759Z,5.27
2019-05-07T00:24:26.509Z,5.10
2019-05-07T00:26:56.541Z,4.80
2019-05-07T00:29:26.407Z,5.00
2019-05-07T00:31:56.139Z,4.90
2019-05-07T00:34:32.801Z,4.73
2019-05-07T00:37:22.021Z,4.70
2019-05-07T00:40:14.432Z,4.90
2019-05-07T00:43:02.689Z,5.20
2019-05-07T00:45:42.155Z,5.20
2019-05-07T00:48:12.650Z,5.27
2019-05-07T00:50:44.347Z,6.67
2019-05-07T00:53:14.757Z,7.27
2019-05-07T00:55:44.418Z,8.33
2019-05-07T00:58:13.974Z,7.20
2019-05-07T01:00:43.905Z,7.87
2019-05-07T01:03:13.560Z,6.80
2019-05-07T01:05:44.880Z,6.10
2019-05-07T01:08:14.721Z,6.10
2019-05-07T01:10:44.327Z,6.37
2019-05-07T01:13:14.846Z,6.57
2019-05-07T01:15:44.405Z,6.10
2019-05-07T01:18:14.832Z,6.53
2019-05-07T01:20:44.496Z,6.27
2019-05-07T01:23:14.205Z,6.93
2019-05-07T01:25:43.901Z,6.70
2019-05-07T01:28:19.362Z,6.50
2019-05-07T01:30:49.108Z,6.60
2019-05-07T01:33:46.503Z,6.27
2019-05-07T01:36:19.457Z,6.67
2019-05-07T01:38:49.034Z,7.43
2019-05-07T01:41:20.008Z,6.40
2019-05-07T01:43:49.501Z,6.47
2019-05-07T01:46:19.135Z,7.10
2019-05-07T01:48:48.771Z,6.73
2019-05-07T01:51:18.404Z,6.70
2019-05-07T01:53:48.162Z,6.80
2019-05-07T01:56:17.660Z,6.70
2019-05-07T01:58:47.235Z,7.43
2019-05-07T02:01:17.144Z,8.73
2019-05-07T02:04:12.774Z,7.93
2019-05-07T02:07:02.803Z,8.10
2019-05-07T02:09:48.649Z,7.63
2019-05-07T02:12:31.966Z,8.10
2019-05-07T02:15:02.680Z,8.17
2019-05-07T02:17:32.364Z,8.50
2019-05-07T02:20:02.636Z,8.50
2019-05-07T02:22:32.388Z,8.37
2019-05-07T02:25:03.306Z,8.47
2019-05-07T02:27:33.079Z,8.30
2019-05-07T02:30:04.357Z,7.87
2019-05-07T02:32:33.947Z,8.00
2019-05-07T02:35:04.500Z,7.90
2019-05-07T02:37:50.811Z,8.47
2019-05-07T02:40:25.432Z,8.97
2019-05-07T02:42:54.991Z,8.93
2019-05-07T02:45:37.529Z,9.53
2019-05-07T02:48:06.879Z,9.97
2019-05-07T02:50:43.655Z,8.90
2019-05-07T02:53:38.306Z,9.50
2019-05-07T02:56:08.150Z,8.70
2019-05-07T02:58:37.938Z,10.70
2019-05-07T03:01:07.469Z,11.20
2019-05-07T03:03:36.819Z,12.63
2019-05-07T03:06:06.271Z,12.27
2019-05-07T03:08:35.812Z,12.20
2019-05-07T03:11:05.281Z,12.07
2019-05-07T03:13:34.771Z,10.50
2019-05-07T03:16:04.582Z,9.83
2019-05-07T03:18:34.141Z,9.97
2019-05-07T03:21:12.710Z,10.83
2019-05-07T03:24:06.406Z,10.43
2019-05-07T03:26:43.357Z,9.80
2019-05-07T03:29:16.977Z,13.47
2019-05-07T03:32:08.720Z,10.80
2019-05-07T03:34:46.865Z,11.23
2019-05-07T03:37:18.944Z,10.40
2019-05-07T03:39:48.461Z,10.50
2019-05-07T03:42:17.926Z,12.80
2019-05-07T03:44:55.734Z,10.77
2019-05-07T03:47:29.356Z,13.10
2019-05-07T03:49:58.870Z,12.10
2019-05-07T03:52:28.517Z,12.03
2019-05-07T03:54:58.291Z,12.83
2019-05-07T03:57:27.895Z,12.33
2019-05-07T03:59:57.401Z,13.37
2019-05-07T04:02:26.790Z,11.80
2019-05-07T04:04:56.339Z,13.10
2019-05-07T04:07:26.150Z,12.77
2019-05-07T04:09:55.914Z,13.37
2019-05-07T04:12:25.368Z,12.57
2019-05-07T04:14:56.387Z,11.57
2019-05-07T04:17:27.029Z,12.27
2019-05-07T04:19:56.719Z,11.93
2019-05-07T04:22:28.935Z,10.87
2019-05-07T04:25:16.940Z,11.30
2019-05-07T04:27:54.267Z,9.90
2019-05-07T04:30:23.838Z,11.07
2019-05-07T04:32:55.077Z,12.10
2019-05-07T04:35:34.237Z,10.80
2019-05-07T04:38:07.006Z,11.23
2019-05-07T04:40:35.680Z,10.37
2019-05-07T04:43:05.090Z,9.67
2019-05-07T04:45:34.844Z,11.60
2019-05-07T04:48:04.558Z,10.20
2019-05-07T04:50:42.969Z,10.27
2019-05-07T04:53:07.504Z,10.07
2019-05-07T04:55:37.118Z,9.60
2019-05-07T04:58:09.107Z,8.63
2019-05-07T05:00:38.673Z,9.33
2019-05-07T05:03:18.438Z,8.60
2019-05-07T05:05:48.117Z,8.20
2019-05-07T05:08:17.622Z,8.80
2019-05-07T05:10:47.086Z,7.93
2019-05-07T05:13:16.526Z,8.10
2019-05-07T05:15:46.266Z,8.17
2019-05-07T05:18:17.887Z,8.30
2019-05-07T05:21:02.779Z,8.07
2019-05-07T05:23:41.946Z,8.60
2019-05-07T05:26:12.544Z,8.57
2019-05-07T05:28:42.126Z,8.00
2019-05-07T05:31:12.641Z,8.73
2019-05-07T05:33:42.172Z,8.33
2019-05-07T05:36:12.638Z,8.70
2019-05-07T05:38:42.545Z,8.70
2019-05-07T05:41:12.447Z,9.30
2019-05-07T05:44:02.412Z,8.53
2019-05-07T05:46:33.179Z,8.40
2019-05-07T05:49:02.736Z,8.23
2019-05-07T05:51:39.076Z,10.27
2019-05-07T05:54:36.506Z,8.20
2019-05-07T05:57:43.263Z,7.80
2019-05-07T06:00:42.341Z,9.40
2019-05-07T06:03:32.263Z,8.33
2019-05-07T06:06:21.959Z,8.73
2019-05-07T06:09:12.209Z,8.70
2019-05-07T06:12:00.407Z,8.37
2019-05-07T06:14:36.566Z,8.53
2019-05-07T06:17:13.087Z,8.63
2019-05-07T06:19:51.912Z,8.37
2019-05-07T06:22:39.158Z,8.30
2019-05-07T06:25:15.972Z,8.47
2019-05-07T06:27:45.650Z,9.00
2019-05-07T06:30:15.987Z,8.63
2019-05-07T06:32:45.886Z,9.10
2019-05-07T06:35:15.482Z,8.93
2019-05-07T06:37:46.367Z,8.73
2019-05-07T06:40:42.383Z,8.67
2019-05-07T06:43:32.544Z,8.93
2019-05-07T06:46:02.407Z,8.23
2019-05-07T06:48:42.251Z,8.90
2019-05-07T06:51:03.256Z,8.57
2019-05-07T06:53:33.795Z,8.23
2019-05-07T06:56:04.558Z,8.57
2019-05-07T06:59:02.338Z,8.63
2019-05-07T07:01:53.000Z,8.27
2019-05-07T07:04:28.892Z,8.53
2019-05-07T07:07:24.019Z,8.53
2019-05-07T07:10:05.145Z,7.87
2019-05-07T07:12:34.670Z,8.10
2019-05-07T07:15:04.310Z,8.03
2019-05-07T07:17:33.534Z,8.67
2019-05-07T07:20:02.929Z,7.57
2019-05-07T07:22:32.183Z,7.73
2019-05-07T07:25:07.822Z,7.47
2019-05-07T07:27:37.454Z,7.73
2019-05-07T07:30:29.193Z,8.27
2019-05-07T07:33:00.242Z,8.73
2019-05-07T07:35:32.025Z,8.00
2019-05-07T07:38:02.450Z,7.67
2019-05-07T07:40:37.506Z,7.80
2019-05-07T07:43:07.242Z,7.03
2019-05-07T07:45:36.770Z,6.93
2019-05-07T07:48:06.122Z,7.17
2019-05-07T07:50:35.335Z,6.93
2019-05-07T07:53:04.618Z,7.07
2019-05-07T07:55:42.647Z,7.00
2019-05-07T07:58:19.306Z,7.47
2019-05-07T08:00:55.498Z,7.43
2019-05-07T08:03:25.167Z,7.03
2019-05-07T08:05:54.408Z,7.43
2019-05-07T08:08:23.633Z,8.43
2019-05-07T08:10:53.229Z,7.33
2019-05-07T08:13:22.898Z,7.13
2019-05-07T08:15:52.349Z,7.50
2019-05-07T08:18:22.232Z,6.67
2019-05-07T08:20:52.162Z,6.70
2019-05-07T08:23:22.642Z,6.43
2019-05-07T08:25:52.685Z,7.20
2019-05-07T08:28:23.205Z,7.43
2019-05-07T08:31:03.030Z,6.67
2019-05-07T08:33:36.175Z,7.90
2019-05-07T08:36:16.916Z,7.07
2019-05-07T08:38:58.590Z,6.53
2019-05-07T08:41:31.749Z,5.83
2019-05-07T08:44:11.717Z,6.23
2019-05-07T08:46:56.604Z,6.37
2019-05-07T08:49:35.917Z,5.67
2019-05-07T08:52:03.774Z,5.77
2019-05-07T08:54:33.960Z,5.70
2019-05-07T08:57:03.549Z,6.67
2019-05-07T08:59:34.319Z,5.93
2019-05-07T09:02:03.889Z,5.70
2019-05-07T09:04:33.208Z,6.23
2019-05-07T09:07:02.889Z,6.40
2019-05-07T09:09:32.798Z,5.47
2019-05-07T09:12:02.962Z,6.17
2019-05-07T09:14:32.573Z,5.93
2019-05-07T09:17:02.726Z,5.20
2019-05-07T09:19:46.831Z,6.27
2019-05-07T09:22:04.625Z,7.17
2019-05-07T09:24:33.782Z,5.33
2019-05-07T09:27:12.217Z,6.17
2019-05-07T09:30:16.213Z,5.10
2019-05-07T09:32:52.218Z,5.23
2019-05-07T09:35:42.990Z,5.30
2019-05-07T09:38:12.918Z,5.57
2019-05-07T09:40:42.300Z,5.60
2019-05-07T09:43:11.886Z,5.57
2019-05-07T09:45:42.076Z,6.10
2019-05-07T09:48:12.082Z,4.83
2019-05-07T09:50:42.916Z,5.47
2019-05-07T09:53:14.121Z,4.70
2019-05-07T09:55:43.402Z,5.80
2019-05-07T09:58:12.807Z,4.90
2019-05-07T10:00:42.687Z,5.80
2019-05-07T10:03:12.608Z,4.63
2019-05-07T10:05:42.952Z,5.00
2019-05-07T10:08:13.066Z,5.10
2019-05-07T10:10:43.946Z,4.70
2019-05-07T10:13:32.991Z,4.57
2019-05-07T10:16:04.317Z,4.90
2019-05-07T10:18:33.710Z,4.35
2019-05-07T10:21:02.918Z,4.15
2019-05-07T10:23:32.661Z,3.87
2019-05-07T10:26:03.738Z,3.87
2019-05-07T10:28:33.110Z,4.00
2019-05-07T10:31:02.493Z,4.08
2019-05-07T10:33:32.138Z,6.28
2019-05-07T10:36:02.072Z,3.70
2019-05-07T10:38:31.689Z,3.70
2019-05-07T10:41:02.844Z,4.60
2019-05-07T10:43:32.902Z,3.70
2019-05-07T10:46:13.532Z,3.52
2019-05-07T10:49:03.841Z,3.75
2019-05-07T10:51:33.218Z,4.10
2019-05-07T10:54:02.563Z,4.12
2019-05-07T10:56:32.599Z,4.27
2019-05-07T10:59:02.846Z,4.70
2019-05-07T11:01:39.115Z,4.30
2019-05-07T11:04:08.799Z,3.92
2019-05-07T11:06:37.953Z,4.70
2019-05-07T11:09:08.885Z,4.67
2019-05-07T11:11:38.399Z,3.60
2019-05-07T11:14:08.049Z,3.90
2019-05-07T11:16:46.780Z,4.12
2019-05-07T11:19:18.790Z,4.17
2019-05-07T11:21:47.590Z,4.25
2019-05-07T11:24:16.881Z,3.72
2019-05-07T11:26:46.505Z,4.22
2019-05-07T11:29:15.844Z,3.95
2019-05-07T11:31:45.148Z,3.52
2019-05-07T11:34:14.422Z,4.37
2019-05-07T11:36:43.910Z,3.58
2019-05-07T11:39:13.091Z,3.72
2019-05-07T11:42:12.613Z,4.28
2019-05-07T11:44:42.414Z,4.00
2019-05-07T11:47:24.218Z,3.65
2019-05-07T11:50:32.837Z,3.92
2019-05-07T11:53:05.161Z,3.60
2019-05-07T11:55:34.442Z,3.70
2019-05-07T11:58:05.154Z,3.10
2019-05-07T12:00:53.431Z,3.20
2019-05-07T12:03:22.748Z,3.25
2019-05-07T12:05:52.743Z,2.87
2019-05-07T12:08:36.523Z,3.20
2019-05-07T12:10:54.486Z,3.10
2019-05-07T12:13:23.824Z,3.42
2019-05-07T12:15:53.167Z,3.42
2019-05-07T12:18:22.828Z,3.60
2019-05-07T12:20:54.233Z,3.75
2019-05-07T12:23:23.586Z,3.40
2019-05-07T12:25:53.322Z,3.50
2019-05-07T12:28:22.885Z,3.60
2019-05-07T12:31:05.841Z,3.25
2019-05-07T12:33:54.049Z,3.05
2019-05-07T12:36:23.849Z,3.17
2019-05-07T12:38:53.422Z,3.27
2019-05-07T12:41:34.146Z,3.10
2019-05-07T12:44:06.589Z,3.42
2019-05-07T12:46:37.347Z,3.12
2019-05-07T12:49:11.755Z,4.03
2019-05-07T12:52:02.293Z,4.65
2019-05-07T12:54:37.741Z,4.00
2019-05-07T12:57:07.085Z,4.12
2019-05-07T12:59:36.396Z,4.00
2019-05-07T13:02:38.119Z,3.15
2019-05-07T13:05:11.887Z,2.85
2019-05-07T13:07:54.786Z,2.72
2019-05-07T13:10:24.088Z,3.40
2019-05-07T13:12:53.442Z,3.45
2019-05-07T13:15:27.551Z,3.55
2019-05-07T13:17:54.533Z,3.77
2019-05-07T13:20:24.138Z,3.67
2019-05-07T13:22:53.343Z,3.72
2019-05-07T13:25:27.713Z,3.67
2019-05-07T13:27:53.654Z,3.30
2019-05-07T13:30:23.748Z,3.55
2019-05-07T13:32:55.409Z,3.30
2019-05-07T13:35:27.450Z,3.37
2019-05-07T13:38:15.986Z,3.95
2019-05-07T13:41:04.124Z,3.80
2019-05-07T13:43:39.025Z,3.27
2019-05-07T13:46:13.083Z,3.30
2019-05-07T13:48:45.479Z,3.70
2019-05-07T13:51:14.201Z,3.60
2019-05-07T13:53:43.480Z,3.27
2019-05-07T13:56:13.674Z,3.33
2019-05-07T13:58:43.241Z,3.60
2019-05-07T14:01:37.201Z,3.25
2019-05-07T14:04:06.750Z,3.20
2019-05-07T14:06:38.944Z,3.50
2019-05-07T14:09:16.144Z,3.00
2019-05-07T14:11:46.009Z,3.35
2019-05-07T14:14:15.180Z,3.87
2019-05-07T14:16:44.998Z,3.73
2019-05-07T14:19:15.081Z,3.57
2019-05-07T14:21:44.390Z,3.58
2019-05-07T14:24:14.886Z,3.13
2019-05-07T14:26:44.273Z,3.25
2019-05-07T14:29:13.529Z,3.40
2019-05-07T14:31:42.779Z,2.95
2019-05-07T14:34:40.389Z,3.30
2019-05-07T14:37:22.007Z,2.95
2019-05-07T14:39:51.793Z,3.50
2019-05-07T14:42:28.657Z,3.40
2019-05-07T14:44:57.928Z,3.10
2019-05-07T14:47:27.195Z,3.25
2019-05-07T14:49:56.714Z,3.05
2019-05-07T14:52:32.220Z,2.90
2019-05-07T14:54:57.229Z,3.10
2019-05-07T14:57:26.544Z,3.50
2019-05-07T14:59:56.760Z,2.52
2019-05-07T15:02:26.158Z,2.90
2019-05-07T15:04:55.426Z,2.72
2019-05-07T15:07:24.777Z,2.67
2019-05-07T15:09:53.987Z,2.20
2019-05-07T15:12:23.885Z,2.77
2019-05-07T15:14:53.229Z,2.55
2019-05-07T15:17:46.403Z,2.80
2019-05-07T15:20:16.582Z,3.27
2019-05-07T15:22:58.416Z,2.72
2019-05-07T15:25:27.866Z,2.72
2019-05-07T15:27:57.562Z,2.67
2019-05-07T15:30:32.484Z,2.85
2019-05-07T15:33:02.300Z,2.58
2019-05-07T15:35:32.103Z,2.92
2019-05-07T15:38:02.448Z,3.10
2019-05-07T15:40:33.014Z,3.40
2019-05-07T15:43:02.329Z,3.10
2019-05-07T15:45:31.933Z,4.05
2019-05-07T15:48:02.104Z,3.40
2019-05-07T15:50:32.230Z,2.83
2019-05-07T15:53:13.705Z,3.12
2019-05-07T15:55:43.148Z,3.20
2019-05-07T15:58:12.419Z,2.80
2019-05-07T16:00:42.512Z,3.17
2019-05-07T16:03:22.188Z,3.80
2019-05-07T16:05:52.999Z,2.90
2019-05-07T16:08:23.261Z,2.85
2019-05-07T16:10:53.156Z,2.85
2019-05-07T16:13:26.745Z,2.87
2019-05-07T16:15:56.221Z,3.15
2019-05-07T16:18:32.686Z,3.08
2019-05-07T16:21:02.111Z,3.58
2019-05-07T16:23:32.748Z,3.22
2019-05-07T16:26:02.466Z,3.20
2019-05-07T16:28:33.429Z,3.20
2019-05-07T16:31:02.794Z,2.90
2019-05-07T16:33:34.726Z,2.60
2019-05-07T16:36:03.549Z,2.55
2019-05-07T16:38:33.156Z,3.10
2019-05-07T16:41:02.636Z,2.98
2019-05-07T16:43:31.965Z,3.27
2019-05-07T16:46:02.478Z,3.25
2019-05-07T16:48:32.731Z,2.98
2019-05-07T16:51:02.495Z,3.72
2019-05-07T16:53:34.989Z,2.98
2019-05-07T16:56:03.513Z,2.65
2019-05-07T16:58:37.526Z,3.27
2019-05-07T17:01:09.736Z,3.08
2019-05-07T17:03:52.081Z,3.10
2019-05-07T17:06:24.762Z,2.92
2019-05-07T17:09:07.126Z,3.10
2019-05-07T17:11:36.600Z,3.35
2019-05-07T17:14:06.225Z,2.98
2019-05-07T17:16:36.036Z,2.95
2019-05-07T17:19:06.798Z,2.95
2019-05-07T17:21:36.456Z,3.00
2019-05-07T17:24:06.070Z,3.05
2019-05-07T17:26:35.810Z,3.50
2019-05-07T17:29:05.325Z,3.27
2019-05-07T17:31:35.114Z,3.35
2019-05-07T17:34:04.601Z,3.22
2019-05-07T17:36:34.022Z,3.65
2019-05-07T17:39:04.707Z,3.52
2019-05-07T17:41:40.092Z,3.40
2019-05-07T17:44:09.536Z,2.90
2019-05-07T17:46:39.078Z,3.20
2019-05-07T17:49:08.626Z,3.52
2019-05-07T17:51:45.877Z,3.47
2019-05-07T17:54:15.373Z,3.03
2019-05-07T17:56:44.997Z,3.80
2019-05-07T17:59:14.597Z,3.60
2019-05-07T18:02:14.977Z,3.80
2019-05-07T18:04:51.004Z,3.87
2019-05-07T18:07:18.621Z,3.40
2019-05-07T18:09:51.299Z,3.67
2019-05-07T18:12:22.523Z,3.47
2019-05-07T18:14:52.851Z,3.50
2019-05-07T18:17:47.239Z,3.77
2019-05-07T18:20:17.016Z,3.87
2019-05-07T18:22:46.518Z,3.87
2019-05-07T18:25:16.445Z,4.97
2019-05-07T18:27:46.200Z,5.62
2019-05-07T18:30:15.779Z,3.60
2019-05-07T18:32:52.017Z,4.20
2019-05-07T18:35:23.107Z,4.50
2019-05-07T18:37:52.851Z,4.30
2019-05-07T18:40:23.340Z,4.10
2019-05-07T18:42:52.959Z,4.40
2019-05-07T18:45:23.079Z,4.10
2019-05-07T18:47:52.779Z,8.17
2019-05-07T18:50:22.669Z,6.10
2019-05-07T18:52:52.696Z,7.10
2019-05-07T18:55:23.787Z,10.47
2019-05-07T18:57:53.265Z,6.40
2019-05-07T19:00:31.618Z,6.00
2019-05-07T19:03:03.120Z,4.40
2019-05-07T19:05:32.354Z,5.57
2019-05-07T19:08:07.812Z,4.67
2019-05-07T19:10:33.183Z,4.73
2019-05-07T19:13:03.050Z,4.23
2019-05-07T19:15:33.015Z,3.77
2019-05-07T19:18:02.843Z,3.97
2019-05-07T19:20:32.761Z,4.57
2019-05-07T19:23:02.831Z,4.67
2019-05-07T19:25:32.827Z,5.20
2019-05-07T19:28:02.902Z,5.07
2019-05-07T19:30:32.760Z,4.67
2019-05-07T19:33:02.563Z,4.00
2019-05-07T19:35:32.902Z,4.40
2019-05-07T19:38:02.986Z,3.70
2019-05-07T19:40:32.617Z,4.03
2019-05-07T19:43:03.045Z,4.37
2019-05-07T19:45:33.127Z,5.40
2019-05-07T19:48:02.952Z,5.00
2019-05-07T19:50:33.163Z,4.60
2019-05-07T19:53:03.101Z,4.87
2019-05-07T19:55:52.587Z,4.40
2019-05-07T19:58:23.027Z,4.87
2019-05-07T20:00:57.122Z,5.20
2019-05-07T20:03:24.545Z,4.87
2019-05-07T20:05:54.361Z,5.33
2019-05-07T20:08:24.426Z,4.87
2019-05-07T20:11:06.591Z,4.80
2019-05-07T20:13:41.613Z,5.00
2019-05-07T20:16:16.188Z,5.13
2019-05-07T20:18:47.425Z,4.80
2019-05-07T20:21:19.966Z,4.57
2019-05-07T20:23:52.655Z,4.20
2019-05-07T20:26:23.141Z,4.77
2019-05-07T20:28:53.701Z,5.30
2019-05-07T20:31:23.211Z,5.10
2019-05-07T20:33:53.309Z,5.70
2019-05-07T20:36:32.716Z,5.20
2019-05-07T20:39:02.516Z,5.50
2019-05-07T20:41:35.877Z,5.43
2019-05-07T20:44:05.266Z,5.77
2019-05-07T20:46:36.865Z,5.83
2019-05-07T20:49:07.330Z,6.53
2019-05-07T20:51:37.897Z,6.30
2019-05-07T20:54:32.549Z,5.40
2019-05-07T20:57:24.094Z,5.97
2019-05-07T20:59:55.054Z,5.03
2019-05-07T21:02:45.535Z,4.57
2019-05-07T21:05:36.498Z,4.93
2019-05-07T21:08:07.878Z,5.57
2019-05-07T21:10:38.014Z,4.73
2019-05-07T21:13:07.169Z,4.80
2019-05-07T21:15:36.354Z,5.30
2019-05-07T21:18:06.161Z,5.13
2019-05-07T21:20:35.630Z,5.80
2019-05-07T21:23:04.855Z,6.20
2019-05-07T21:25:42.732Z,5.67
2019-05-07T21:28:05.018Z,4.87
2019-05-07T21:30:34.285Z,4.80
2019-05-07T21:33:03.463Z,4.63
2019-05-07T21:35:32.733Z,4.93
2019-05-07T21:38:02.338Z,4.70
2019-05-07T21:40:32.098Z,4.63
2019-05-07T21:43:01.539Z,4.90
2019-05-07T21:45:32.730Z,4.87
2019-05-07T21:48:02.542Z,4.20
2019-05-07T21:50:31.969Z,4.40
2019-05-07T21:53:05.892Z,5.27
2019-05-07T21:55:58.843Z,5.30
2019-05-07T21:58:29.737Z,5.40
2019-05-07T22:01:03.326Z,4.87
2019-05-07T22:03:34.991Z,5.53
2019-05-07T22:06:03.565Z,5.17
2019-05-07T22:08:32.739Z,4.90
2019-05-07T22:11:02.566Z,4.93
2019-05-07T22:13:33.143Z,5.73
2019-05-07T22:16:02.803Z,5.33
2019-05-07T22:18:33.985Z,4.97
2019-05-07T22:21:03.139Z,4.90
2019-05-07T22:23:33.862Z,5.03
2019-05-07T22:26:19.101Z,4.50
2019-05-07T22:28:35.954Z,4.57
2019-05-07T22:31:24.167Z,4.20
2019-05-07T22:34:22.249Z,4.10
2019-05-07T22:36:52.495Z,4.27
2019-05-07T22:39:22.651Z,4.13
2019-05-07T22:41:51.949Z,3.93
2019-05-07T22:44:23.793Z,4.60
2019-05-07T22:46:52.701Z,4.13
2019-05-07T22:49:22.904Z,4.50
2019-05-07T22:51:54.865Z,4.27
2019-05-07T22:54:23.453Z,3.97
2019-05-07T22:56:59.496Z,4.50
2019-05-07T22:59:28.760Z,4.50
2019-05-07T23:01:58.126Z,4.50
2019-05-07T23:04:27.375Z,4.43
2019-05-07T23:06:56.758Z,4.27
2019-05-07T23:09:25.970Z,4.50
2019-05-07T23:11:55.211Z,4.40
2019-05-07T23:14:24.469Z,4.37
2019-05-07T23:16:55.446Z,4.63
2019-05-07T23:19:24.869Z,4.90
2019-05-07T23:21:54.454Z,4.40
2019-05-07T23:24:24.941Z,4.33
2019-05-07T23:26:54.401Z,4.03
2019-05-07T23:29:23.859Z,4.50
2019-05-07T23:31:55.259Z,4.83
2019-05-07T23:34:24.578Z,4.67
2019-05-07T23:36:53.806Z,4.27
2019-05-07T23:39:24.672Z,5.10
2019-05-07T23:42:04.997Z,4.97
2019-05-07T23:44:34.973Z,4.50
2019-05-07T23:47:04.689Z,4.70
2019-05-07T23:49:33.962Z,5.20
2019-05-07T23:52:03.287Z,5.17
2019-05-07T23:54:32.939Z,4.60
2019-05-07T23:57:09.254Z,4.53
2019-05-07T23:59:34.765Z,4.80
